createdAt,value
2018-09-14T00:03:37.477Z,12.40
2018-09-14T00:07:31.662Z,12.40
2018-09-14T00:11:25.670Z,12.40
2018-09-14T00:15:19.609Z,12.30
2018-09-14T00:19:13.807Z,12.40
2018-09-14T00:23:07.831Z,12.50
2018-09-14T00:27:01.884Z,12.60
2018-09-14T00:30:55.777Z,12.60
2018-09-14T00:34:49.749Z,12.60
2018-09-14T00:38:43.728Z,12.60
2018-09-14T00:42:37.689Z,12.60
2018-09-14T00:46:31.691Z,12.60
2018-09-14T00:50:25.676Z,12.60
2018-09-14T00:54:19.617Z,12.60
2018-09-14T00:58:13.577Z,12.50
2018-09-14T01:02:07.563Z,12.50
2018-09-14T01:06:01.528Z,12.50
2018-09-14T01:09:55.460Z,12.40
2018-09-14T01:13:49.456Z,12.40
2018-09-14T01:17:43.847Z,12.40
2018-09-14T01:21:37.902Z,12.40
2018-09-14T01:25:31.866Z,12.40
2018-09-14T01:29:25.903Z,12.40
2018-09-14T01:33:19.849Z,12.40
2018-09-14T01:37:13.871Z,12.30
2018-09-14T01:41:08.222Z,12.30
2018-09-14T01:45:02.205Z,12.30
2018-09-14T01:48:56.515Z,12.30
2018-09-14T01:52:50.471Z,12.20
2018-09-14T01:56:44.510Z,12.10
2018-09-14T02:00:38.490Z,12.10
2018-09-14T02:04:32.372Z,12.00
2018-09-14T02:08:26.382Z,12.00
2018-09-14T02:12:20.363Z,11.90
2018-09-14T02:16:14.335Z,11.90
2018-09-14T02:20:08.275Z,11.80
2018-09-14T02:24:02.213Z,11.70
2018-09-14T02:27:56.259Z,11.70
2018-09-14T02:31:50.195Z,11.60
2018-09-14T02:35:44.279Z,11.50
2018-09-14T02:39:39.050Z,11.40
2018-09-14T02:43:32.986Z,11.40
2018-09-14T02:47:26.973Z,11.30
2018-09-14T02:51:20.917Z,11.30
2018-09-14T02:55:15.010Z,11.30
2018-09-14T02:59:08.957Z,11.30
2018-09-14T03:03:02.898Z,11.30
2018-09-14T03:06:56.894Z,11.20
2018-09-14T03:10:50.946Z,11.10
2018-09-14T03:14:44.868Z,11.10
2018-09-14T03:18:38.804Z,11.00
2018-09-14T03:22:32.735Z,10.90
2018-09-14T03:26:26.718Z,10.90
2018-09-14T03:30:20.651Z,10.80
2018-09-14T03:34:14.667Z,10.90
2018-09-14T03:38:08.583Z,10.80
2018-09-14T03:42:02.841Z,10.80
2018-09-14T03:45:56.793Z,10.80
2018-09-14T03:49:51.019Z,10.80
2018-09-14T03:53:44.959Z,10.70
2018-09-14T03:57:39.015Z,10.70
2018-09-14T04:01:33.009Z,10.70
2018-09-14T04:05:26.915Z,10.70
2018-09-14T04:09:20.874Z,10.70
2018-09-14T04:13:14.865Z,10.60
2018-09-14T04:17:08.866Z,10.60
2018-09-14T04:21:02.825Z,10.60
2018-09-14T04:24:56.852Z,10.50
2018-09-14T04:28:50.776Z,10.50
2018-09-14T04:32:44.921Z,10.50
2018-09-14T04:36:38.846Z,10.60
2018-09-14T04:40:32.766Z,10.60
2018-09-14T04:44:26.847Z,10.50
2018-09-14T04:48:20.889Z,10.50
2018-09-14T04:52:14.766Z,10.50
2018-09-14T04:56:09.406Z,10.50
2018-09-14T05:00:03.387Z,10.50
2018-09-14T05:03:57.374Z,10.60
2018-09-14T05:07:51.331Z,10.50
2018-09-14T05:11:45.316Z,10.60
2018-09-14T05:15:39.359Z,10.60
2018-09-14T05:19:33.292Z,10.80
2018-09-14T05:23:27.642Z,10.80
2018-09-14T05:27:21.599Z,10.80
2018-09-14T05:31:15.506Z,10.80
2018-09-14T05:35:09.646Z,10.70
2018-09-14T05:39:04.471Z,10.70
2018-09-14T05:42:58.413Z,10.70
2018-09-14T05:46:52.281Z,10.80
2018-09-14T05:50:46.264Z,10.80
2018-09-14T05:54:40.293Z,10.80
2018-09-14T05:58:34.397Z,10.80
2018-09-14T06:02:29.244Z,10.80
2018-09-14T06:06:23.279Z,10.90
2018-09-14T06:10:17.571Z,11.10
2018-09-14T06:14:11.604Z,11.20
2018-09-14T06:18:05.596Z,11.40
2018-09-14T06:21:59.602Z,11.50
2018-09-14T06:25:53.655Z,11.60
2018-09-14T06:29:47.859Z,11.80
2018-09-14T06:33:41.886Z,11.90
2018-09-14T06:37:35.871Z,12.10
2018-09-14T06:41:29.906Z,12.30
2018-09-14T06:45:23.992Z,12.40
2018-09-14T06:49:17.898Z,12.50
2018-09-14T06:53:11.903Z,12.60
2018-09-14T06:57:05.831Z,12.70
2018-09-14T07:01:00.244Z,12.80
2018-09-14T07:04:54.296Z,12.90
2018-09-14T07:08:48.323Z,13.00
2018-09-14T07:12:42.250Z,13.10
2018-09-14T07:16:36.209Z,13.20
2018-09-14T07:20:30.266Z,13.40
2018-09-14T07:24:24.940Z,13.60
2018-09-14T07:28:18.953Z,13.70
2018-09-14T07:32:13.543Z,13.90
2018-09-14T07:36:07.483Z,14.20
2018-09-14T07:40:01.429Z,14.30
2018-09-14T07:43:56.404Z,14.40
2018-09-14T07:47:50.931Z,14.50
2018-09-14T07:51:44.859Z,14.60
2018-09-14T07:55:39.724Z,14.70
2018-09-14T07:59:34.097Z,14.90
2018-09-14T08:03:28.156Z,15.00
2018-09-14T08:07:22.144Z,15.10
2018-09-14T08:11:16.342Z,15.10
2018-09-14T08:15:10.282Z,15.30
2018-09-14T08:19:04.489Z,15.40
2018-09-14T08:22:58.936Z,15.50
2018-09-14T08:26:53.269Z,15.60
2018-09-14T08:30:47.447Z,15.60
2018-09-14T08:34:41.561Z,15.80
2018-09-14T08:38:35.679Z,15.80
2018-09-14T08:42:29.634Z,15.90
2018-09-14T08:46:23.686Z,16.00
2018-09-14T08:50:17.812Z,16.10
2018-09-14T08:54:11.844Z,16.10
2018-09-14T08:58:06.193Z,16.30
2018-09-14T09:02:00.395Z,16.30
2018-09-14T09:05:54.724Z,16.40
2018-09-14T09:09:49.079Z,16.40
2018-09-14T09:13:43.112Z,16.50
2018-09-14T09:17:37.076Z,16.50
2018-09-14T09:21:31.031Z,16.60
2018-09-14T09:25:25.017Z,16.80
2018-09-14T09:29:18.950Z,16.80
2018-09-14T09:33:12.977Z,16.90
2018-09-14T09:37:07.007Z,17.00
2018-09-14T09:41:01.981Z,17.10
2018-09-14T09:44:55.906Z,17.20
2018-09-14T09:48:50.060Z,17.20
2018-09-14T09:52:44.023Z,17.30
2018-09-14T09:56:38.953Z,17.30
2018-09-14T10:00:38.363Z,17.40
2018-09-14T10:04:38.470Z,17.50
2018-09-14T10:08:32.548Z,17.50
2018-09-14T10:12:26.704Z,17.60
2018-09-14T10:16:20.796Z,17.70
2018-09-14T10:20:14.867Z,17.90
2018-09-14T10:24:08.831Z,18.10
2018-09-14T10:28:02.783Z,18.40
2018-09-14T10:31:56.779Z,18.60
2018-09-14T10:35:50.752Z,18.90
2018-09-14T10:39:44.786Z,19.00
2018-09-14T10:43:38.894Z,19.10
2018-09-14T10:47:32.915Z,19.40
2018-09-14T10:51:26.991Z,19.50
2018-09-14T10:55:21.388Z,19.40
2018-09-14T10:59:15.311Z,19.20
2018-09-14T11:03:09.313Z,19.30
2018-09-14T11:07:03.524Z,19.50
2018-09-14T11:10:57.413Z,19.90
2018-09-14T11:14:51.434Z,20.00
2018-09-14T11:18:45.554Z,20.00
2018-09-14T11:22:39.739Z,19.90
2018-09-14T11:26:33.771Z,19.80
2018-09-14T11:30:27.742Z,19.60
2018-09-14T11:34:21.681Z,19.80
2018-09-14T11:38:15.738Z,20.00
2018-09-14T11:42:09.839Z,20.20
2018-09-14T11:46:03.868Z,20.30
2018-09-14T11:49:57.784Z,20.40
2018-09-14T11:53:51.694Z,20.40
2018-09-14T11:57:45.723Z,20.60
2018-09-14T12:01:40.191Z,20.80
2018-09-14T12:05:34.277Z,20.60
2018-09-14T12:09:28.184Z,20.20
2018-09-14T12:13:22.200Z,19.90
2018-09-14T12:17:16.307Z,19.80
2018-09-14T12:21:10.428Z,19.60
2018-09-14T12:25:04.395Z,19.60
2018-09-14T12:28:58.389Z,19.60
2018-09-14T12:32:52.441Z,19.70
2018-09-14T12:36:46.402Z,20.00
2018-09-14T12:40:40.506Z,20.40
2018-09-14T12:44:35.316Z,20.80
2018-09-14T12:48:29.315Z,21.20
2018-09-14T12:52:23.867Z,21.60
2018-09-14T12:56:17.945Z,21.60
2018-09-14T13:00:11.917Z,21.70
2018-09-14T13:04:06.095Z,21.60
2018-09-14T13:08:00.468Z,21.60
2018-09-14T13:11:54.424Z,21.70
2018-09-14T13:15:48.467Z,21.80
2018-09-14T13:19:42.448Z,21.60
2018-09-14T13:23:36.464Z,21.50
2018-09-14T13:27:30.461Z,21.60
2018-09-14T13:31:24.474Z,21.70
2018-09-14T13:35:18.859Z,21.70
2018-09-14T13:39:13.301Z,21.60
2018-09-14T13:43:07.369Z,21.50
2018-09-14T13:47:03.092Z,21.10
2018-09-14T13:50:59.182Z,20.80
2018-09-14T13:54:53.301Z,20.70
2018-09-14T13:58:47.277Z,20.50
2018-09-14T14:02:41.521Z,20.30
2018-09-14T14:06:35.507Z,20.20
2018-09-14T14:10:29.649Z,20.40
2018-09-14T14:14:23.590Z,20.70
2018-09-14T14:18:17.738Z,20.60
2018-09-14T14:22:12.033Z,20.50
2018-09-14T14:26:07.424Z,20.60
2018-09-14T14:30:01.392Z,20.60
2018-09-14T14:33:55.328Z,20.70
2018-09-14T14:37:49.269Z,20.80
2018-09-14T14:41:43.308Z,20.80
2018-09-14T14:45:37.868Z,20.90
2018-09-14T14:49:31.814Z,20.80
2018-09-14T14:53:25.936Z,20.80
2018-09-14T14:57:19.906Z,20.80
2018-09-14T15:01:13.848Z,20.80
2018-09-14T15:05:07.895Z,20.80
2018-09-14T15:09:01.976Z,20.80
2018-09-14T15:12:55.940Z,20.80
2018-09-14T15:16:49.932Z,20.90
2018-09-14T15:20:43.959Z,20.90
2018-09-14T15:24:37.859Z,20.90
2018-09-14T15:28:31.774Z,20.80
2018-09-14T15:32:25.744Z,20.80
2018-09-14T15:36:19.745Z,20.60
2018-09-14T15:40:13.771Z,20.60
2018-09-14T15:44:07.854Z,20.50
2018-09-14T15:48:01.826Z,20.40
2018-09-14T15:51:55.854Z,20.40
2018-09-14T15:55:49.803Z,20.30
2018-09-14T15:59:43.789Z,20.30
2018-09-14T16:03:37.952Z,20.20
2018-09-14T16:07:31.927Z,20.00
2018-09-14T16:11:25.918Z,19.80
2018-09-14T16:15:19.981Z,19.70
2018-09-14T16:19:14.034Z,19.60
2018-09-14T16:23:08.120Z,19.60
2018-09-14T16:27:02.835Z,19.60
2018-09-14T16:30:56.820Z,19.50
2018-09-14T16:34:50.765Z,19.50
2018-09-14T16:38:44.743Z,19.50
2018-09-14T16:42:38.944Z,19.40
2018-09-14T16:46:32.922Z,19.40
2018-09-14T16:50:26.951Z,19.30
2018-09-14T16:54:20.918Z,19.30
2018-09-14T16:58:14.951Z,19.30
2018-09-14T17:02:09.014Z,19.20
2018-09-14T17:06:02.962Z,19.10
2018-09-14T17:09:57.005Z,19.00
2018-09-14T17:13:51.020Z,18.80
2018-09-14T17:17:45.011Z,18.70
2018-09-14T17:21:38.974Z,18.60
2018-09-14T17:25:32.971Z,18.40
2018-09-14T17:29:26.868Z,18.40
2018-09-14T17:33:20.847Z,18.30
2018-09-14T17:37:14.792Z,18.20
2018-09-14T17:41:08.860Z,18.00
2018-09-14T17:45:02.808Z,17.90
2018-09-14T17:48:56.844Z,17.80
2018-09-14T17:52:50.768Z,17.70
2018-09-14T17:56:44.807Z,17.60
2018-09-14T18:00:38.785Z,17.50
2018-09-14T18:04:33.231Z,17.50
2018-09-14T18:08:27.588Z,17.30
2018-09-14T18:12:21.579Z,17.20
2018-09-14T18:16:15.534Z,17.10
2018-09-14T18:20:09.454Z,17.00
2018-09-14T18:24:03.531Z,16.90
2018-09-14T18:27:57.508Z,16.70
2018-09-14T18:31:51.436Z,16.50
2018-09-14T18:35:45.434Z,16.40
2018-09-14T18:39:39.321Z,16.30
2018-09-14T18:43:33.218Z,16.20
2018-09-14T18:47:27.178Z,16.20
2018-09-14T18:51:21.304Z,16.10
2018-09-14T18:55:15.264Z,16.00
2018-09-14T18:59:09.364Z,15.90
2018-09-14T19:03:03.339Z,15.90
2018-09-14T19:06:57.334Z,15.90
2018-09-14T19:10:51.368Z,16.00
2018-09-14T19:14:45.325Z,16.00
2018-09-14T19:18:39.659Z,16.10
2018-09-14T19:22:33.702Z,16.20
2018-09-14T19:26:27.692Z,16.20
2018-09-14T19:30:21.642Z,16.20
2018-09-14T19:34:15.695Z,16.10
2018-09-14T19:38:10.179Z,16.00
2018-09-14T19:42:04.157Z,16.00
2018-09-14T19:45:58.196Z,15.90
2018-09-14T19:49:52.297Z,15.80
2018-09-14T19:53:46.286Z,15.80
2018-09-14T19:57:40.390Z,15.70
2018-09-14T20:01:34.438Z,15.70
2018-09-14T20:05:28.508Z,15.70
2018-09-14T20:09:22.879Z,15.90
2018-09-14T20:13:16.854Z,16.00
2018-09-14T20:17:11.051Z,16.10
2018-09-14T20:21:05.084Z,16.10
2018-09-14T20:24:59.091Z,16.20
2018-09-14T20:28:53.220Z,16.20
2018-09-14T20:32:47.307Z,16.20
2018-09-14T20:36:41.303Z,16.10
2018-09-14T20:40:36.991Z,15.70
2018-09-14T20:44:30.996Z,15.50
2018-09-14T20:48:25.084Z,15.50
2018-09-14T20:52:19.716Z,15.40
2018-09-14T20:56:15.092Z,15.40
2018-09-14T21:00:09.255Z,15.60
2018-09-14T21:04:03.327Z,15.70
2018-09-14T21:07:57.478Z,15.80
2018-09-14T21:11:51.690Z,15.80
2018-09-14T21:15:45.772Z,15.90
2018-09-14T21:19:39.758Z,15.90
2018-09-14T21:23:34.284Z,15.90
2018-09-14T21:27:28.347Z,15.90
2018-09-14T21:31:22.373Z,15.90
2018-09-14T21:35:16.339Z,15.90
2018-09-14T21:39:11.539Z,15.90
2018-09-14T21:43:05.541Z,15.90
2018-09-14T21:46:59.684Z,15.90
2018-09-14T21:50:53.698Z,15.90
2018-09-14T21:54:47.680Z,15.90
2018-09-14T21:58:41.774Z,16.00
2018-09-14T22:02:35.828Z,16.00
2018-09-14T22:06:30.306Z,15.90
2018-09-14T22:10:24.967Z,15.90
2018-09-14T22:14:19.076Z,15.80
2018-09-14T22:18:13.121Z,15.70
2018-09-14T22:22:07.242Z,15.50
2018-09-14T22:26:01.049Z,15.40
2018-09-14T22:29:55.196Z,15.30
2018-09-14T22:33:49.207Z,15.20
2018-09-14T22:37:43.661Z,15.10
2018-09-14T22:41:38.020Z,15.00
2018-09-14T22:45:31.982Z,14.80
2018-09-14T22:49:26.808Z,14.60
2018-09-14T22:53:20.950Z,14.60
2018-09-14T22:57:14.869Z,14.40
2018-09-14T23:01:14.119Z,14.40
2018-09-14T23:05:08.050Z,14.40
2018-09-14T23:09:01.996Z,14.30
2018-09-14T23:12:56.134Z,14.20
2018-09-14T23:16:50.252Z,14.20
2018-09-14T23:20:44.540Z,14.10
2018-09-14T23:24:38.439Z,14.00
2018-09-14T23:28:32.381Z,13.90
2018-09-14T23:32:26.358Z,13.70
2018-09-14T23:36:20.302Z,13.60
2018-09-14T23:40:14.249Z,13.50
2018-09-14T23:44:08.318Z,13.60
2018-09-14T23:48:02.263Z,13.70
2018-09-14T23:51:56.198Z,13.60
2018-09-14T23:55:50.134Z,13.70
2018-09-14T23:59:44.102Z,13.70
